createdAt,value
2018-05-23T00:02:10.291Z,19.83
2018-05-23T00:06:12.771Z,19.79
2018-05-23T00:10:16.123Z,19.74
2018-05-23T00:14:18.593Z,19.68
2018-05-23T00:18:21.091Z,19.66
2018-05-23T00:22:23.560Z,19.65
2018-05-23T00:26:26.072Z,19.60
2018-05-23T00:30:28.533Z,19.57
2018-05-23T00:34:31.021Z,19.55
2018-05-23T00:38:33.518Z,19.53
2018-05-23T00:42:35.989Z,19.48
2018-05-23T00:46:38.476Z,19.45
2018-05-23T00:50:40.988Z,19.39
2018-05-23T00:54:55.733Z,19.34
2018-05-23T00:58:58.229Z,19.27
2018-05-23T01:03:00.707Z,19.27
2018-05-23T01:07:03.190Z,19.30
2018-05-23T01:11:05.684Z,19.31
2018-05-23T01:15:08.183Z,19.28
2018-05-23T01:19:10.684Z,19.28
2018-05-23T01:23:13.207Z,19.28
2018-05-23T01:27:15.670Z,19.27
2018-05-23T01:31:18.171Z,19.25
2018-05-23T01:35:20.660Z,19.24
2018-05-23T01:39:23.167Z,19.18
2018-05-23T01:43:25.630Z,19.14
2018-05-23T01:47:28.123Z,19.11
2018-05-23T01:51:30.615Z,19.06
2018-05-23T01:55:33.124Z,18.95
2018-05-23T01:59:35.613Z,18.92
2018-05-23T02:03:38.107Z,18.91
2018-05-23T02:07:40.583Z,18.87
2018-05-23T02:11:43.079Z,18.81
2018-05-23T02:15:45.559Z,18.78
2018-05-23T02:19:48.047Z,18.68
2018-05-23T02:23:50.533Z,18.59
2018-05-23T02:27:53.008Z,18.53
2018-05-23T02:31:55.501Z,18.49
2018-05-23T02:35:57.993Z,18.44
2018-05-23T02:40:00.500Z,18.40
2018-05-23T02:44:03.054Z,18.34
2018-05-23T02:48:05.549Z,18.29
2018-05-23T02:52:08.019Z,18.29
2018-05-23T02:56:10.503Z,18.23
2018-05-23T03:00:12.989Z,18.21
2018-05-23T03:04:15.479Z,18.23
2018-05-23T03:08:17.970Z,18.20
2018-05-23T03:12:20.441Z,18.18
2018-05-23T03:16:22.931Z,18.18
2018-05-23T03:20:25.430Z,18.18
2018-05-23T03:24:27.914Z,18.17
2018-05-23T03:28:30.402Z,18.17
2018-05-23T03:32:32.901Z,18.18
2018-05-23T03:36:35.372Z,18.18
2018-05-23T03:40:37.888Z,18.16
2018-05-23T03:44:40.392Z,18.14
2018-05-23T03:48:42.841Z,18.11
2018-05-23T03:52:45.347Z,18.05
2018-05-23T03:56:47.837Z,18.04
2018-05-23T04:01:02.146Z,18.04
2018-05-23T04:05:16.387Z,18.07
2018-05-23T04:09:18.876Z,18.13
2018-05-23T04:13:21.367Z,18.18
2018-05-23T04:17:23.855Z,18.16
2018-05-23T04:21:26.352Z,18.17
2018-05-23T04:25:28.847Z,18.22
2018-05-23T04:29:31.312Z,18.29
2018-05-23T04:33:33.815Z,18.34
2018-05-23T04:37:36.299Z,18.40
2018-05-23T04:41:38.815Z,18.46
2018-05-23T04:45:41.332Z,18.47
2018-05-23T04:49:43.827Z,18.50
2018-05-23T04:53:46.309Z,18.52
2018-05-23T04:57:48.802Z,18.58
2018-05-23T05:01:51.314Z,18.67
2018-05-23T05:05:53.828Z,18.77
2018-05-23T05:09:56.387Z,18.85
2018-05-23T05:13:58.845Z,18.97
2018-05-23T05:18:01.354Z,19.10
2018-05-23T05:22:03.845Z,19.21
2018-05-23T05:26:06.365Z,19.32
2018-05-23T05:30:08.867Z,19.44
2018-05-23T05:34:11.346Z,19.61
2018-05-23T05:38:13.851Z,19.74
2018-05-23T05:42:16.338Z,19.89
2018-05-23T05:46:18.825Z,19.98
2018-05-23T05:50:21.319Z,20.06
2018-05-23T05:54:23.820Z,20.15
2018-05-23T05:58:26.319Z,20.26
2018-05-23T06:02:28.802Z,20.39
2018-05-23T06:06:31.286Z,20.54
2018-05-23T06:10:33.783Z,20.72
2018-05-23T06:14:36.259Z,20.90
2018-05-23T06:18:38.747Z,21.10
2018-05-23T06:22:41.231Z,21.25
2018-05-23T06:26:43.720Z,21.44
2018-05-23T06:30:46.177Z,21.61
2018-05-23T06:34:48.668Z,21.84
2018-05-23T06:38:51.158Z,22.01
2018-05-23T06:42:53.618Z,22.13
2018-05-23T06:46:56.105Z,22.22
2018-05-23T06:50:58.589Z,22.38
2018-05-23T06:55:01.092Z,22.56
2018-05-23T06:59:03.595Z,22.69
2018-05-23T07:03:06.063Z,22.77
2018-05-23T07:07:08.554Z,22.83
2018-05-23T07:11:11.139Z,22.85
2018-05-23T07:15:13.546Z,22.75
2018-05-23T07:19:16.054Z,22.74
2018-05-23T07:23:18.521Z,22.76
2018-05-23T07:27:21.041Z,22.82
2018-05-23T07:31:23.511Z,22.91
2018-05-23T07:35:26.023Z,22.97
2018-05-23T07:39:28.514Z,22.98
2018-05-23T07:43:31.001Z,23.09
2018-05-23T07:47:33.501Z,23.33
2018-05-23T07:51:36.002Z,23.53
2018-05-23T07:55:38.471Z,23.70
2018-05-23T07:59:40.974Z,23.74
2018-05-23T08:03:43.464Z,23.73
2018-05-23T08:07:45.937Z,23.72
2018-05-23T08:11:48.433Z,23.83
2018-05-23T08:15:50.945Z,23.98
2018-05-23T08:19:53.419Z,24.14
2018-05-23T08:23:55.905Z,24.32
2018-05-23T08:27:58.400Z,24.51
2018-05-23T08:32:00.876Z,24.71
2018-05-23T08:36:03.367Z,24.87
2018-05-23T08:40:05.860Z,24.97
2018-05-23T08:44:08.365Z,25.06
2018-05-23T08:48:10.870Z,25.20
2018-05-23T08:52:13.390Z,25.40
2018-05-23T08:56:15.868Z,25.54
2018-05-23T09:00:18.367Z,25.69
2018-05-23T09:04:20.853Z,25.77
2018-05-23T09:08:23.345Z,25.89
2018-05-23T09:12:25.835Z,25.99
2018-05-23T09:16:28.326Z,26.03
2018-05-23T09:20:30.818Z,26.11
2018-05-23T09:24:33.298Z,26.17
2018-05-23T09:28:35.779Z,26.26
2018-05-23T09:32:38.273Z,26.34
2018-05-23T09:36:40.761Z,26.46
2018-05-23T09:40:43.251Z,26.64
2018-05-23T09:44:45.752Z,26.76
2018-05-23T09:48:48.244Z,26.81
2018-05-23T09:52:50.739Z,26.84
2018-05-23T09:56:53.207Z,26.87
2018-05-23T10:00:55.716Z,26.96
2018-05-23T10:04:58.230Z,27.03
2018-05-23T10:09:12.336Z,27.20
2018-05-23T10:13:14.866Z,27.29
2018-05-23T10:17:17.353Z,27.34
2018-05-23T10:21:19.835Z,27.31
2018-05-23T10:25:22.303Z,27.35
2018-05-23T10:29:24.780Z,27.42
2018-05-23T10:33:27.295Z,27.46
2018-05-23T10:37:29.766Z,27.50
2018-05-23T10:41:32.262Z,27.57
2018-05-23T10:45:34.740Z,27.66
2018-05-23T10:49:37.227Z,27.63
2018-05-23T10:53:39.725Z,27.72
2018-05-23T10:57:42.899Z,27.88
2018-05-23T11:01:45.395Z,28.02
2018-05-23T11:05:48.011Z,28.12
2018-05-23T11:09:50.422Z,28.13
2018-05-23T11:13:52.895Z,28.12
2018-05-23T11:17:55.386Z,28.16
2018-05-23T11:21:57.876Z,28.24
2018-05-23T11:26:00.353Z,28.34
2018-05-23T11:30:02.888Z,28.36
2018-05-23T11:34:05.341Z,28.41
2018-05-23T11:38:07.844Z,28.47
2018-05-23T11:42:10.336Z,28.52
2018-05-23T11:46:12.879Z,28.65
2018-05-23T11:50:15.358Z,28.76
2018-05-23T11:54:17.835Z,28.72
2018-05-23T11:58:20.342Z,28.61
2018-05-23T12:02:22.820Z,28.66
2018-05-23T12:06:25.316Z,28.74
2018-05-23T12:10:27.881Z,28.70
2018-05-23T12:14:30.302Z,28.68
2018-05-23T12:18:32.811Z,28.73
2018-05-23T12:22:35.277Z,28.78
2018-05-23T12:26:37.776Z,28.78
2018-05-23T12:30:40.244Z,28.75
2018-05-23T12:34:42.732Z,28.78
2018-05-23T12:38:45.220Z,28.77
2018-05-23T12:42:47.711Z,28.73
2018-05-23T12:46:50.215Z,28.67
2018-05-23T12:50:52.692Z,28.65
2018-05-23T12:54:55.182Z,28.65
2018-05-23T12:58:57.671Z,28.60
2018-05-23T13:03:00.143Z,28.56
2018-05-23T13:07:02.631Z,28.51
2018-05-23T13:11:05.129Z,28.46
2018-05-23T13:15:07.600Z,28.40
2018-05-23T13:19:10.094Z,28.31
2018-05-23T13:23:12.616Z,28.29
2018-05-23T13:27:15.090Z,28.26
2018-05-23T13:31:17.590Z,28.22
2018-05-23T13:35:20.104Z,28.17
2018-05-23T13:39:22.581Z,28.15
2018-05-23T13:43:25.078Z,28.07
2018-05-23T13:47:27.561Z,28.05
2018-05-23T13:51:30.040Z,28.06
2018-05-23T13:55:32.559Z,28.06
2018-05-23T13:59:35.990Z,27.97
2018-05-23T14:03:38.468Z,27.83
2018-05-23T14:07:41.005Z,27.73
2018-05-23T14:11:43.496Z,27.70
2018-05-23T14:15:45.975Z,27.70
2018-05-23T14:19:48.464Z,27.67
2018-05-23T14:23:51.913Z,27.60
2018-05-23T14:27:54.385Z,27.55
2018-05-23T14:31:57.911Z,27.58
2018-05-23T14:36:00.413Z,27.60
2018-05-23T14:40:02.904Z,27.61
2018-05-23T14:44:05.392Z,27.64
2018-05-23T14:48:07.868Z,27.68
2018-05-23T14:52:10.353Z,27.74
2018-05-23T14:56:12.938Z,27.78
2018-05-23T15:00:15.353Z,27.81
2018-05-23T15:04:17.862Z,27.81
2018-05-23T15:08:20.319Z,27.86
2018-05-23T15:12:22.802Z,27.86
2018-05-23T15:16:25.297Z,27.87
2018-05-23T15:20:27.771Z,27.85
2018-05-23T15:24:30.263Z,27.86
2018-05-23T15:28:34.694Z,27.83
2018-05-23T15:32:41.212Z,27.76
2018-05-23T15:36:45.615Z,27.69
2018-05-23T15:40:48.095Z,27.65
2018-05-23T15:44:52.568Z,27.64
2018-05-23T15:48:59.452Z,27.60
2018-05-23T15:53:01.920Z,27.61
2018-05-23T15:57:04.403Z,27.62
2018-05-23T16:01:06.887Z,27.59
2018-05-23T16:05:10.416Z,27.51
2018-05-23T16:09:12.934Z,27.44
2018-05-23T16:13:15.425Z,27.35
2018-05-23T16:17:18.958Z,27.27
2018-05-23T16:21:21.464Z,27.20
2018-05-23T16:25:23.932Z,27.28
2018-05-23T16:29:26.436Z,27.22
2018-05-23T16:33:28.972Z,27.18
2018-05-23T16:37:31.591Z,27.13
2018-05-23T16:41:34.091Z,27.10
2018-05-23T16:45:36.565Z,27.10
2018-05-23T16:49:39.064Z,27.09
2018-05-23T16:53:41.651Z,27.07
2018-05-23T16:57:44.144Z,27.03
2018-05-23T17:01:46.644Z,27.00
2018-05-23T17:05:49.186Z,26.96
2018-05-23T17:09:51.659Z,26.90
2018-05-23T17:13:54.163Z,26.89
2018-05-23T17:17:58.759Z,26.84
2018-05-23T17:22:02.267Z,26.75
2018-05-23T17:26:04.793Z,26.71
2018-05-23T17:30:08.265Z,26.64
2018-05-23T17:34:11.789Z,26.56
2018-05-23T17:38:14.277Z,26.49
2018-05-23T17:42:16.779Z,26.45
2018-05-23T17:46:19.293Z,26.38
2018-05-23T17:50:22.887Z,26.33
2018-05-23T17:54:25.461Z,26.28
2018-05-23T17:58:27.898Z,26.24
2018-05-23T18:02:32.359Z,26.18
2018-05-23T18:06:34.873Z,26.10
2018-05-23T18:10:37.378Z,26.01
2018-05-23T18:14:39.873Z,25.97
2018-05-23T18:37:15.318Z,25.58
2018-05-23T18:41:17.850Z,25.55
2018-05-23T18:45:20.962Z,25.54
2018-05-23T18:49:24.857Z,25.53
2018-05-23T18:53:27.286Z,25.50
2018-05-23T18:57:29.787Z,25.47
2018-05-23T19:01:32.277Z,25.43
2018-05-23T19:05:34.786Z,25.40
2018-05-23T19:09:37.284Z,25.38
2018-05-23T19:13:39.840Z,25.33
2018-05-23T19:17:42.390Z,25.28
2018-05-23T19:21:44.913Z,25.23
2018-05-23T19:25:47.447Z,25.18
2018-05-23T19:29:49.924Z,25.17
2018-05-23T19:33:52.434Z,25.15
2018-05-23T19:37:54.954Z,25.10
2018-05-23T19:41:57.473Z,25.08
2018-05-23T19:45:59.957Z,25.06
2018-05-23T19:50:02.805Z,24.98
2018-05-23T19:54:05.360Z,24.94
2018-05-23T19:58:07.881Z,24.87
2018-05-23T20:02:10.417Z,24.81
2018-05-23T20:06:12.898Z,24.75
2018-05-23T20:10:15.425Z,24.70
2018-05-23T20:14:18.203Z,24.59
2018-05-23T20:18:20.454Z,24.50
2018-05-23T20:22:22.945Z,24.44
2018-05-23T20:26:25.507Z,24.43
2018-05-23T20:30:28.019Z,24.36
2018-05-23T20:34:30.512Z,24.28
2018-05-23T20:38:33.971Z,24.23
2018-05-23T20:42:36.518Z,24.22
2018-05-23T20:46:39.046Z,24.17
2018-05-23T20:50:41.567Z,24.10
2018-05-23T20:54:44.067Z,24.06
2018-05-23T20:58:46.748Z,24.02
2018-05-23T21:02:49.165Z,23.95
2018-05-23T21:06:51.679Z,23.88
2018-05-23T21:10:54.212Z,23.82
2018-05-23T21:14:56.707Z,23.78
2018-05-23T21:18:59.211Z,23.74
2018-05-23T21:23:07.902Z,23.66
2018-05-23T21:27:10.416Z,23.60
2018-05-23T21:31:12.907Z,23.55
2018-05-23T21:35:15.423Z,23.47
2018-05-23T21:39:18.070Z,23.40
2018-05-23T21:43:20.694Z,23.35
2018-05-23T21:47:23.183Z,23.29
2018-05-23T21:51:25.835Z,23.24
2018-05-23T21:55:28.348Z,23.20
2018-05-23T21:59:30.865Z,23.14
2018-05-23T22:03:33.403Z,23.05
2018-05-23T22:07:35.899Z,22.95
2018-05-23T22:11:38.591Z,22.89
2018-05-23T22:15:41.139Z,22.86
2018-05-23T22:19:43.627Z,22.78
2018-05-23T22:23:46.303Z,22.75
2018-05-23T22:27:48.878Z,22.70
2018-05-23T22:31:51.341Z,22.65
2018-05-23T22:35:53.871Z,22.62
2018-05-23T22:39:56.334Z,22.58
2018-05-23T22:43:58.840Z,22.53
2018-05-23T22:48:01.355Z,22.47
2018-05-23T22:52:03.815Z,22.45
2018-05-23T22:56:06.314Z,22.42
2018-05-23T23:00:08.811Z,22.38
2018-05-23T23:04:11.299Z,22.36
2018-05-23T23:08:13.796Z,22.33
2018-05-23T23:12:16.276Z,22.33
2018-05-23T23:16:18.780Z,22.31
2018-05-23T23:20:21.281Z,22.31
2018-05-23T23:24:23.768Z,22.24
2018-05-23T23:28:26.228Z,22.14
2018-05-23T23:32:28.759Z,22.05
2018-05-23T23:36:31.219Z,21.99
2018-05-23T23:40:33.739Z,21.95
2018-05-23T23:44:36.312Z,21.85
2018-05-23T23:48:38.741Z,21.75
2018-05-23T23:52:41.245Z,21.69
2018-05-23T23:56:43.743Z,21.63
